sensor_id;sensor_type;location;lat;lon;timestamp;pressure;altitude;pressure_sealevel;temperature;humidity
2875;BME280;1445;52.600;13.328;2023-03-23T00:02:30;99902.81;;;12.36;100.00
2875;BME280;1445;52.600;13.328;2023-03-23T00:04:58;99900.44;;;12.26;100.00
2875;BME280;1445;52.600;13.328;2023-03-23T00:07:26;99885.00;;;12.25;100.00
2875;BME280;1445;52.600;13.328;2023-03-23T00:09:54;99885.47;;;12.27;100.00
2875;BME280;1445;52.600;13.328;2023-03-23T00:12:24;99893.59;;;12.24;100.00
2875;BME280;1445;52.600;13.328;2023-03-23T00:15:08;99880.22;;;12.34;100.00
2875;BME280;1445;52.600;13.328;2023-03-23T00:17:38;99894.25;;;12.29;100.00
2875;BME280;1445;52.600;13.328;2023-03-23T00:20:04;99888.56;;;12.26;100.00
2875;BME280;1445;52.600;13.328;2023-03-23T00:22:33;99897.19;;;12.24;100.00
2875;BME280;1445;52.600;13.328;2023-03-23T00:25:04;99880.13;;;12.22;100.00
2875;BME280;1445;52.600;13.328;2023-03-23T00:27:29;99881.75;;;12.23;100.00
2875;BME280;1445;52.600;13.328;2023-03-23T00:29:55;99883.06;;;12.17;100.00
2875;BME280;1445;52.600;13.328;2023-03-23T00:32:24;99875.78;;;12.12;100.00
2875;BME280;1445;52.600;13.328;2023-03-23T00:34:55;99872.53;;;12.10;100.00
2875;BME280;1445;52.600;13.328;2023-03-23T00:37:21;99874.19;;;12.11;100.00
2875;BME280;1445;52.600;13.328;2023-03-23T00:39:46;99865.13;;;12.02;100.00
2875;BME280;1445;52.600;13.328;2023-03-23T00:42:14;99866.41;;;12.05;100.00
2875;BME280;1445;52.600;13.328;2023-03-23T00:44:39;99857.19;;;12.01;100.00
2875;BME280;1445;52.600;13.328;2023-03-23T00:47:05;99853.78;;;11.95;100.00
2875;BME280;1445;52.600;13.328;2023-03-23T00:49:34;99857.69;;;11.94;100.00
2875;BME280;1445;52.600;13.328;2023-03-23T00:52:00;99856.06;;;11.93;100.00
2875;BME280;1445;52.600;13.328;2023-03-23T00:54:26;99851.22;;;11.90;100.00
2875;BME280;1445;52.600;13.328;2023-03-23T00:56:51;99848.59;;;11.93;100.00
2875;BME280;1445;52.600;13.328;2023-03-23T00:59:17;99837.06;;;11.83;100.00
2875;BME280;1445;52.600;13.328;2023-03-23T01:01:43;99834.31;;;11.83;100.00
2875;BME280;1445;52.600;13.328;2023-03-23T01:04:09;99835.00;;;11.80;100.00
2875;BME280;1445;52.600;13.328;2023-03-23T01:06:38;99843.94;;;11.77;100.00
2875;BME280;1445;52.600;13.328;2023-03-23T01:09:08;99843.28;;;11.80;100.00
2875;BME280;1445;52.600;13.328;2023-03-23T01:11:34;99843.78;;;11.73;100.00
2875;BME280;1445;52.600;13.328;2023-03-23T01:14:00;99842.50;;;11.70;100.00
2875;BME280;1445;52.600;13.328;2023-03-23T01:16:26;99837.78;;;11.71;100.00
2875;BME280;1445;52.600;13.328;2023-03-23T01:18:52;99835.38;;;11.69;100.00
2875;BME280;1445;52.600;13.328;2023-03-23T01:21:19;99830.97;;;11.68;100.00
2875;BME280;1445;52.600;13.328;2023-03-23T01:23:45;99822.53;;;11.65;100.00
2875;BME280;1445;52.600;13.328;2023-03-23T01:26:19;99815.91;;;11.66;100.00
2875;BME280;1445;52.600;13.328;2023-03-23T01:28:45;99820.75;;;11.69;100.00
2875;BME280;1445;52.600;13.328;2023-03-23T01:31:16;99821.88;;;11.68;100.00
2875;BME280;1445;52.600;13.328;2023-03-23T01:33:43;99826.94;;;11.66;100.00
2875;BME280;1445;52.600;13.328;2023-03-23T01:36:23;99825.44;;;11.68;100.00
2875;BME280;1445;52.600;13.328;2023-03-23T01:38:49;99821.06;;;11.67;100.00
2875;BME280;1445;52.600;13.328;2023-03-23T01:41:16;99820.47;;;11.62;100.00
2875;BME280;1445;52.600;13.328;2023-03-23T01:46:19;99819.31;;;11.63;100.00
2875;BME280;1445;52.600;13.328;2023-03-23T01:48:48;99823.38;;;11.65;100.00
2875;BME280;1445;52.600;13.328;2023-03-23T01:51:16;99808.72;;;11.65;100.00
2875;BME280;1445;52.600;13.328;2023-03-23T01:53:46;99809.41;;;11.62;100.00
2875;BME280;1445;52.600;13.328;2023-03-23T01:56:16;99796.28;;;11.59;100.00
2875;BME280;1445;52.600;13.328;2023-03-23T01:58:44;99799.50;;;11.61;100.00
2875;BME280;1445;52.600;13.328;2023-03-23T02:01:13;99789.91;;;11.67;100.00
2875;BME280;1445;52.600;13.328;2023-03-23T02:03:42;99787.78;;;11.73;100.00
2875;BME280;1445;52.600;13.328;2023-03-23T02:06:09;99792.00;;;11.70;100.00
2875;BME280;1445;52.600;13.328;2023-03-23T02:08:35;99788.44;;;11.69;100.00
2875;BME280;1445;52.600;13.328;2023-03-23T02:11:11;99799.31;;;11.66;100.00
2875;BME280;1445;52.600;13.328;2023-03-23T02:13:37;99805.47;;;11.71;100.00
2875;BME280;1445;52.600;13.328;2023-03-23T02:33:21;99776.31;;;11.83;100.00
2875;BME280;1445;52.600;13.328;2023-03-23T02:36:20;99789.31;;;11.82;100.00
2875;BME280;1445;52.600;13.328;2023-03-23T02:39:08;99783.78;;;11.82;100.00
2875;BME280;1445;52.600;13.328;2023-03-23T02:41:40;99788.38;;;11.78;100.00
2875;BME280;1445;52.600;13.328;2023-03-23T02:44:08;99785.97;;;11.77;100.00
2875;BME280;1445;52.600;13.328;2023-03-23T02:46:35;99800.56;;;11.77;100.00
2875;BME280;1445;52.600;13.328;2023-03-23T02:49:02;99803.28;;;11.47;100.00
2875;BME280;1445;52.600;13.328;2023-03-23T02:51:29;99789.03;;;11.37;100.00
2875;BME280;1445;52.600;13.328;2023-03-23T02:53:56;99789.78;;;11.16;100.00
2875;BME280;1445;52.600;13.328;2023-03-23T02:56:25;99789.63;;;11.13;100.00
2875;BME280;1445;52.600;13.328;2023-03-23T02:58:53;99794.31;;;11.12;100.00
2875;BME280;1445;52.600;13.328;2023-03-23T03:03:50;99784.91;;;11.05;100.00
2875;BME280;1445;52.600;13.328;2023-03-23T03:09:07;99786.38;;;11.11;100.00
2875;BME280;1445;52.600;13.328;2023-03-23T03:11:36;99790.59;;;11.17;100.00
2875;BME280;1445;52.600;13.328;2023-03-23T03:14:31;99784.72;;;11.27;100.00
2875;BME280;1445;52.600;13.328;2023-03-23T03:17:12;99778.84;;;11.29;100.00
2875;BME280;1445;52.600;13.328;2023-03-23T03:19:41;99788.88;;;11.33;100.00
2875;BME280;1445;52.600;13.328;2023-03-23T03:22:08;99783.22;;;11.38;100.00
2875;BME280;1445;52.600;13.328;2023-03-23T03:24:35;99777.19;;;11.36;100.00
2875;BME280;1445;52.600;13.328;2023-03-23T03:27:11;99784.34;;;11.37;100.00
2875;BME280;1445;52.600;13.328;2023-03-23T03:29:40;99798.44;;;11.44;100.00
2875;BME280;1445;52.600;13.328;2023-03-23T03:32:12;99803.72;;;11.20;100.00
2875;BME280;1445;52.600;13.328;2023-03-23T03:34:39;99807.13;;;11.08;100.00
2875;BME280;1445;52.600;13.328;2023-03-23T03:37:05;99809.13;;;10.90;100.00
2875;BME280;1445;52.600;13.328;2023-03-23T03:39:34;99812.22;;;10.80;100.00
2875;BME280;1445;52.600;13.328;2023-03-23T03:42:00;99815.94;;;10.67;100.00
2875;BME280;1445;52.600;13.328;2023-03-23T03:44:25;99820.66;;;10.58;100.00
2875;BME280;1445;52.600;13.328;2023-03-23T03:46:51;99827.16;;;10.53;100.00
2875;BME280;1445;52.600;13.328;2023-03-23T03:49:16;99837.31;;;10.35;100.00
2875;BME280;1445;52.600;13.328;2023-03-23T03:51:42;99838.47;;;10.34;100.00
2875;BME280;1445;52.600;13.328;2023-03-23T03:54:08;99841.56;;;10.33;100.00
2875;BME280;1445;52.600;13.328;2023-03-23T03:56:33;99838.97;;;10.36;100.00
2875;BME280;1445;52.600;13.328;2023-03-23T03:59:08;99841.22;;;10.34;100.00
2875;BME280;1445;52.600;13.328;2023-03-23T04:01:36;99835.09;;;10.46;100.00
2875;BME280;1445;52.600;13.328;2023-03-23T04:04:01;99832.16;;;10.51;100.00
2875;BME280;1445;52.600;13.328;2023-03-23T04:06:28;99835.09;;;10.55;100.00
2875;BME280;1445;52.600;13.328;2023-03-23T04:08:55;99824.22;;;10.58;100.00
2875;BME280;1445;52.600;13.328;2023-03-23T04:11:21;99827.00;;;10.49;100.00
2875;BME280;1445;52.600;13.328;2023-03-23T04:13:46;99809.00;;;10.43;100.00
2875;BME280;1445;52.600;13.328;2023-03-23T04:16:12;99816.94;;;10.36;100.00
2875;BME280;1445;52.600;13.328;2023-03-23T04:18:37;99857.44;;;10.36;100.00
2875;BME280;1445;52.600;13.328;2023-03-23T04:21:04;99853.03;;;10.26;100.00
2875;BME280;1445;52.600;13.328;2023-03-23T04:23:32;99863.44;;;10.29;100.00
2875;BME280;1445;52.600;13.328;2023-03-23T04:26:00;99842.84;;;10.26;100.00
2875;BME280;1445;52.600;13.328;2023-03-23T04:28:26;99835.06;;;10.37;100.00
2875;BME280;1445;52.600;13.328;2023-03-23T04:30:52;99848.34;;;10.35;100.00
2875;BME280;1445;52.600;13.328;2023-03-23T04:33:19;99856.44;;;10.32;100.00
2875;BME280;1445;52.600;13.328;2023-03-23T04:35:46;99859.88;;;10.29;100.00
2875;BME280;1445;52.600;13.328;2023-03-23T04:38:15;99858.72;;;10.30;100.00
2875;BME280;1445;52.600;13.328;2023-03-23T04:40:42;99861.13;;;10.31;100.00
2875;BME280;1445;52.600;13.328;2023-03-23T04:43:08;99872.84;;;10.37;100.00
2875;BME280;1445;52.600;13.328;2023-03-23T04:45:36;99872.50;;;10.38;100.00
2875;BME280;1445;52.600;13.328;2023-03-23T04:48:04;99875.13;;;10.43;100.00
2875;BME280;1445;52.600;13.328;2023-03-23T04:50:31;99877.06;;;10.43;100.00
2875;BME280;1445;52.600;13.328;2023-03-23T04:52:58;99876.41;;;10.37;100.00
2875;BME280;1445;52.600;13.328;2023-03-23T04:55:25;99886.28;;;10.38;100.00
2875;BME280;1445;52.600;13.328;2023-03-23T04:57:51;99877.38;;;10.41;100.00
2875;BME280;1445;52.600;13.328;2023-03-23T05:00:17;99886.31;;;10.47;100.00
2875;BME280;1445;52.600;13.328;2023-03-23T05:02:45;99889.53;;;10.40;100.00
2875;BME280;1445;52.600;13.328;2023-03-23T05:05:13;99906.22;;;10.44;100.00
2875;BME280;1445;52.600;13.328;2023-03-23T05:07:39;99906.69;;;10.37;100.00
2875;BME280;1445;52.600;13.328;2023-03-23T05:10:06;99902.34;;;10.45;100.00
2875;BME280;1445;52.600;13.328;2023-03-23T05:12:33;99909.28;;;10.42;100.00
2875;BME280;1445;52.600;13.328;2023-03-23T05:14:58;99913.19;;;10.33;100.00
2875;BME280;1445;52.600;13.328;2023-03-23T05:17:24;99897.94;;;10.35;100.00
2875;BME280;1445;52.600;13.328;2023-03-23T05:19:50;99908.13;;;10.26;100.00
2875;BME280;1445;52.600;13.328;2023-03-23T05:22:16;99887.72;;;10.27;100.00
2875;BME280;1445;52.600;13.328;2023-03-23T05:24:41;99903.19;;;10.06;100.00
2875;BME280;1445;52.600;13.328;2023-03-23T05:27:11;99900.53;;;9.92;100.00
2875;BME280;1445;52.600;13.328;2023-03-23T05:29:40;99895.38;;;9.99;100.00
2875;BME280;1445;52.600;13.328;2023-03-23T05:32:08;99907.13;;;9.82;100.00
2875;BME280;1445;52.600;13.328;2023-03-23T05:34:35;99931.25;;;9.85;100.00
2875;BME280;1445;52.600;13.328;2023-03-23T05:37:01;99939.16;;;9.78;100.00
2875;BME280;1445;52.600;13.328;2023-03-23T05:39:28;99945.22;;;9.89;100.00
2875;BME280;1445;52.600;13.328;2023-03-23T05:41:54;99952.66;;;9.88;100.00
2875;BME280;1445;52.600;13.328;2023-03-23T05:44:20;99962.00;;;9.78;100.00
2875;BME280;1445;52.600;13.328;2023-03-23T05:46:46;99962.16;;;9.82;100.00
2875;BME280;1445;52.600;13.328;2023-03-23T05:49:12;99958.13;;;9.79;100.00
2875;BME280;1445;52.600;13.328;2023-03-23T05:51:39;99965.06;;;9.77;100.00
2875;BME280;1445;52.600;13.328;2023-03-23T05:54:05;99967.63;;;9.73;100.00
2875;BME280;1445;52.600;13.328;2023-03-23T05:56:30;99969.06;;;9.71;100.00
2875;BME280;1445;52.600;13.328;2023-03-23T05:58:56;99971.81;;;9.71;100.00
2875;BME280;1445;52.600;13.328;2023-03-23T06:01:22;99977.22;;;9.76;100.00
2875;BME280;1445;52.600;13.328;2023-03-23T06:03:49;99979.97;;;9.76;100.00
2875;BME280;1445;52.600;13.328;2023-03-23T06:06:16;99993.06;;;9.79;100.00
2875;BME280;1445;52.600;13.328;2023-03-23T06:08:43;99983.38;;;9.82;100.00
2875;BME280;1445;52.600;13.328;2023-03-23T06:11:09;99982.06;;;9.79;100.00
2875;BME280;1445;52.600;13.328;2023-03-23T06:13:35;99986.94;;;9.82;100.00
2875;BME280;1445;52.600;13.328;2023-03-23T06:16:01;99989.69;;;9.82;100.00
2875;BME280;1445;52.600;13.328;2023-03-23T06:18:27;99994.56;;;9.85;100.00
2875;BME280;1445;52.600;13.328;2023-03-23T06:20:53;99996.84;;;9.83;100.00
2875;BME280;1445;52.600;13.328;2023-03-23T06:23:19;99994.91;;;9.84;100.00
2875;BME280;1445;52.600;13.328;2023-03-23T06:25:44;99996.97;;;9.78;100.00
2875;BME280;1445;52.600;13.328;2023-03-23T06:28:10;100016.59;;;9.85;100.00
2875;BME280;1445;52.600;13.328;2023-03-23T06:30:39;100007.19;;;9.86;100.00
2875;BME280;1445;52.600;13.328;2023-03-23T06:33:05;100008.66;;;9.84;100.00
2875;BME280;1445;52.600;13.328;2023-03-23T06:35:31;100007.19;;;9.86;100.00
2875;BME280;1445;52.600;13.328;2023-03-23T06:37:56;100010.34;;;9.93;100.00
2875;BME280;1445;52.600;13.328;2023-03-23T06:40:23;100002.22;;;9.88;100.00
2875;BME280;1445;52.600;13.328;2023-03-23T06:42:48;100010.66;;;9.92;100.00
2875;BME280;1445;52.600;13.328;2023-03-23T06:45:14;100007.59;;;9.93;100.00
2875;BME280;1445;52.600;13.328;2023-03-23T06:47:39;100004.69;;;9.98;100.00
2875;BME280;1445;52.600;13.328;2023-03-23T06:50:05;100015.56;;;10.03;100.00
2875;BME280;1445;52.600;13.328;2023-03-23T06:52:31;100002.28;;;9.97;100.00
2875;BME280;1445;52.600;13.328;2023-03-23T06:54:56;100007.97;;;10.00;100.00
2875;BME280;1445;52.600;13.328;2023-03-23T06:57:22;100016.22;;;10.00;100.00
2875;BME280;1445;52.600;13.328;2023-03-23T06:59:47;100017.50;;;10.03;100.00
2875;BME280;1445;52.600;13.328;2023-03-23T07:02:14;100014.44;;;10.04;100.00
2875;BME280;1445;52.600;13.328;2023-03-23T07:04:40;100009.56;;;10.01;100.00
2875;BME280;1445;52.600;13.328;2023-03-23T07:07:08;99997.94;;;10.04;100.00
2875;BME280;1445;52.600;13.328;2023-03-23T07:09:34;99992.25;;;10.01;100.00
2875;BME280;1445;52.600;13.328;2023-03-23T07:12:00;100002.13;;;10.02;100.00
2875;BME280;1445;52.600;13.328;2023-03-23T07:14:26;100010.06;;;10.03;100.00
2875;BME280;1445;52.600;13.328;2023-03-23T07:16:52;100011.06;;;10.08;100.00
2875;BME280;1445;52.600;13.328;2023-03-23T07:19:18;100008.00;;;10.18;100.00
2875;BME280;1445;52.600;13.328;2023-03-23T07:21:43;100003.00;;;10.20;100.00
2875;BME280;1445;52.600;13.328;2023-03-23T07:24:12;100005.09;;;10.14;100.00
2875;BME280;1445;52.600;13.328;2023-03-23T07:26:41;100019.53;;;10.20;100.00
2875;BME280;1445;52.600;13.328;2023-03-23T07:29:07;100016.97;;;10.23;100.00
2875;BME280;1445;52.600;13.328;2023-03-23T07:31:33;99996.38;;;10.21;100.00
2875;BME280;1445;52.600;13.328;2023-03-23T07:33:58;99995.38;;;10.17;100.00
2875;BME280;1445;52.600;13.328;2023-03-23T07:36:24;99987.28;;;10.12;100.00
2875;BME280;1445;52.600;13.328;2023-03-23T07:38:51;99995.75;;;10.24;100.00
2875;BME280;1445;52.600;13.328;2023-03-23T07:41:16;99977.94;;;10.21;100.00
2875;BME280;1445;52.600;13.328;2023-03-23T07:43:42;99970.41;;;10.36;100.00
2875;BME280;1445;52.600;13.328;2023-03-23T07:46:08;99951.94;;;10.45;100.00
2875;BME280;1445;52.600;13.328;2023-03-23T07:48:33;99950.94;;;10.41;100.00
2875;BME280;1445;52.600;13.328;2023-03-23T07:50:59;99955.50;;;10.45;100.00
2875;BME280;1445;52.600;13.328;2023-03-23T07:53:24;99964.56;;;10.37;100.00
2875;BME280;1445;52.600;13.328;2023-03-23T07:55:50;99966.34;;;10.42;100.00
2875;BME280;1445;52.600;13.328;2023-03-23T07:58:16;99976.44;;;10.46;100.00
2875;BME280;1445;52.600;13.328;2023-03-23T08:00:45;99987.44;;;10.46;100.00
2875;BME280;1445;52.600;13.328;2023-03-23T08:03:11;99996.53;;;10.56;100.00
2875;BME280;1445;52.600;13.328;2023-03-23T08:05:37;100003.69;;;10.57;100.00
2875;BME280;1445;52.600;13.328;2023-03-23T08:08:03;100006.28;;;10.53;100.00
2875;BME280;1445;52.600;13.328;2023-03-23T08:10:29;99989.56;;;10.58;100.00
2875;BME280;1445;52.600;13.328;2023-03-23T08:12:55;100004.31;;;10.54;100.00
2875;BME280;1445;52.600;13.328;2023-03-23T08:15:22;100006.44;;;10.57;100.00
2875;BME280;1445;52.600;13.328;2023-03-23T08:17:49;100006.91;;;10.59;100.00
2875;BME280;1445;52.600;13.328;2023-03-23T08:20:16;100015.97;;;10.50;100.00
2875;BME280;1445;52.600;13.328;2023-03-23T08:22:49;100012.75;;;10.57;100.00
2875;BME280;1445;52.600;13.328;2023-03-23T08:25:15;100004.66;;;10.61;100.00
2875;BME280;1445;52.600;13.328;2023-03-23T08:27:42;99976.94;;;10.66;100.00
2875;BME280;1445;52.600;13.328;2023-03-23T08:30:11;100002.38;;;10.63;100.00
2875;BME280;1445;52.600;13.328;2023-03-23T08:32:38;100020.41;;;10.69;100.00
2875;BME280;1445;52.600;13.328;2023-03-23T08:35:03;100002.75;;;10.79;100.00
2875;BME280;1445;52.600;13.328;2023-03-23T08:37:29;99995.63;;;10.86;100.00
2875;BME280;1445;52.600;13.328;2023-03-23T08:39:55;100003.28;;;10.98;100.00
2875;BME280;1445;52.600;13.328;2023-03-23T08:42:23;100004.59;;;11.09;100.00
2875;BME280;1445;52.600;13.328;2023-03-23T08:44:49;100010.13;;;11.18;100.00
2875;BME280;1445;52.600;13.328;2023-03-23T08:47:15;99998.25;;;11.26;100.00
2875;BME280;1445;52.600;13.328;2023-03-23T08:49:41;99980.09;;;11.34;100.00
2875;BME280;1445;52.600;13.328;2023-03-23T08:52:08;99974.44;;;11.30;100.00
2875;BME280;1445;52.600;13.328;2023-03-23T08:54:34;99964.97;;;11.40;100.00
2875;BME280;1445;52.600;13.328;2023-03-23T08:57:01;99961.09;;;11.50;100.00
2875;BME280;1445;52.600;13.328;2023-03-23T08:59:27;99977.16;;;11.47;100.00
2875;BME280;1445;52.600;13.328;2023-03-23T09:01:53;99966.75;;;11.53;100.00
2875;BME280;1445;52.600;13.328;2023-03-23T09:04:18;99979.75;;;11.53;100.00
2875;BME280;1445;52.600;13.328;2023-03-23T09:06:44;99961.09;;;11.58;100.00
2875;BME280;1445;52.600;13.328;2023-03-23T09:09:11;99964.81;;;11.62;100.00
2875;BME280;1445;52.600;13.328;2023-03-23T09:11:36;99957.16;;;11.68;100.00
2875;BME280;1445;52.600;13.328;2023-03-23T09:14:03;99945.63;;;11.66;100.00
2875;BME280;1445;52.600;13.328;2023-03-23T09:16:30;99973.56;;;11.73;100.00
2875;BME280;1445;52.600;13.328;2023-03-23T09:18:56;99938.63;;;11.77;100.00
2875;BME280;1445;52.600;13.328;2023-03-23T09:21:23;99921.06;;;11.82;100.00
2875;BME280;1445;52.600;13.328;2023-03-23T09:23:49;99909.88;;;11.87;100.00
2875;BME280;1445;52.600;13.328;2023-03-23T09:26:14;99908.06;;;11.91;100.00
2875;BME280;1445;52.600;13.328;2023-03-23T09:28:40;99906.22;;;12.04;100.00
2875;BME280;1445;52.600;13.328;2023-03-23T09:31:06;99906.03;;;12.09;100.00
2875;BME280;1445;52.600;13.328;2023-03-23T09:33:31;99891.34;;;12.26;100.00
2875;BME280;1445;52.600;13.328;2023-03-23T09:36:00;99899.66;;;12.47;100.00
2875;BME280;1445;52.600;13.328;2023-03-23T09:38:27;99899.44;;;12.52;100.00
2875;BME280;1445;52.600;13.328;2023-03-23T09:41:04;99898.00;;;12.75;100.00
2875;BME280;1445;52.600;13.328;2023-03-23T09:43:51;99897.59;;;12.85;100.00
2875;BME280;1445;52.600;13.328;2023-03-23T09:49:11;99877.06;;;13.07;100.00
2875;BME280;1445;52.600;13.328;2023-03-23T09:51:49;99881.72;;;12.95;100.00
2875;BME280;1445;52.600;13.328;2023-03-23T09:56:45;99871.78;;;13.14;100.00
2875;BME280;1445;52.600;13.328;2023-03-23T09:59:14;99872.03;;;13.22;100.00
2875;BME280;1445;52.600;13.328;2023-03-23T10:01:45;99894.69;;;13.03;100.00
2875;BME280;1445;52.600;13.328;2023-03-23T10:04:36;99866.00;;;13.07;100.00
2875;BME280;1445;52.600;13.328;2023-03-23T10:07:29;99877.88;;;13.08;100.00
2875;BME280;1445;52.600;13.328;2023-03-23T10:10:01;99878.13;;;13.15;100.00
2875;BME280;1445;52.600;13.328;2023-03-23T10:20:25;99862.19;;;13.33;100.00
2875;BME280;1445;52.600;13.328;2023-03-23T10:25:29;99855.84;;;13.32;100.00
2875;BME280;1445;52.600;13.328;2023-03-23T10:28:18;99841.84;;;13.62;100.00
2875;BME280;1445;52.600;13.328;2023-03-23T10:30:46;99829.50;;;13.59;100.00
2875;BME280;1445;52.600;13.328;2023-03-23T10:33:47;99845.31;;;13.71;100.00
2875;BME280;1445;52.600;13.328;2023-03-23T10:36:55;99829.03;;;13.82;100.00
2875;BME280;1445;52.600;13.328;2023-03-23T10:39:13;99825.47;;;13.81;100.00
2875;BME280;1445;52.600;13.328;2023-03-23T10:41:42;99824.63;;;13.93;100.00
2875;BME280;1445;52.600;13.328;2023-03-23T10:44:17;99816.56;;;14.00;100.00
2875;BME280;1445;52.600;13.328;2023-03-23T10:46:59;99815.88;;;14.03;100.00
2875;BME280;1445;52.600;13.328;2023-03-23T10:49:30;99816.44;;;13.97;100.00
2875;BME280;1445;52.600;13.328;2023-03-23T10:54:57;99825.94;;;14.08;100.00
2875;BME280;1445;52.600;13.328;2023-03-23T10:57:26;99817.84;;;13.91;100.00
2875;BME280;1445;52.600;13.328;2023-03-23T11:00:21;99822.47;;;13.99;100.00
2875;BME280;1445;52.600;13.328;2023-03-23T11:05:36;99820.06;;;13.97;100.00
2875;BME280;1445;52.600;13.328;2023-03-23T11:08:03;99817.16;;;13.94;100.00
2875;BME280;1445;52.600;13.328;2023-03-23T11:10:41;99825.25;;;13.87;100.00
2875;BME280;1445;52.600;13.328;2023-03-23T11:13:15;99831.72;;;13.91;100.00
2875;BME280;1445;52.600;13.328;2023-03-23T11:15:43;99855.94;;;13.94;100.00
2875;BME280;1445;52.600;13.328;2023-03-23T11:18:57;99848.44;;;13.94;100.00
2875;BME280;1445;52.600;13.328;2023-03-23T11:20:58;99834.47;;;13.91;100.00
2875;BME280;1445;52.600;13.328;2023-03-23T11:23:30;99838.28;;;13.98;100.00
2875;BME280;1445;52.600;13.328;2023-03-23T11:31:27;99841.94;;;14.27;100.00
2875;BME280;1445;52.600;13.328;2023-03-23T11:33:59;99847.28;;;14.32;100.00
2875;BME280;1445;52.600;13.328;2023-03-23T11:36:50;99850.00;;;14.44;100.00
2875;BME280;1445;52.600;13.328;2023-03-23T11:41:56;99842.84;;;14.43;100.00
2875;BME280;1445;52.600;13.328;2023-03-23T11:44:23;99845.13;;;14.66;100.00
2875;BME280;1445;52.600;13.328;2023-03-23T11:47:01;99844.09;;;14.46;100.00
2875;BME280;1445;52.600;13.328;2023-03-23T11:50:09;99849.91;;;14.53;100.00
2875;BME280;1445;52.600;13.328;2023-03-23T11:52:43;99834.63;;;14.59;100.00
2875;BME280;1445;52.600;13.328;2023-03-23T11:57:40;99870.94;;;14.54;100.00
2875;BME280;1445;52.600;13.328;2023-03-23T12:00:18;99838.22;;;14.47;100.00
2875;BME280;1445;52.600;13.328;2023-03-23T12:08:18;99849.66;;;14.58;100.00
2875;BME280;1445;52.600;13.328;2023-03-23T12:13:31;99842.84;;;14.55;100.00
2875;BME280;1445;52.600;13.328;2023-03-23T12:28:11;99824.66;;;14.70;100.00
2875;BME280;1445;52.600;13.328;2023-03-23T12:39:08;99850.38;;;14.55;100.00
2875;BME280;1445;52.600;13.328;2023-03-23T12:41:54;99813.13;;;14.68;100.00
2875;BME280;1445;52.600;13.328;2023-03-23T12:44:36;99822.91;;;14.78;100.00
2875;BME280;1445;52.600;13.328;2023-03-23T12:47:18;99808.66;;;14.92;100.00
2875;BME280;1445;52.600;13.328;2023-03-23T12:50:05;99810.06;;;14.86;100.00
2875;BME280;1445;52.600;13.328;2023-03-23T12:52:50;99802.22;;;15.03;100.00
2875;BME280;1445;52.600;13.328;2023-03-23T12:55:23;99786.97;;;15.57;100.00
2875;BME280;1445;52.600;13.328;2023-03-23T12:57:58;99795.44;;;16.12;100.00
2875;BME280;1445;52.600;13.328;2023-03-23T13:05:48;99830.16;;;16.02;100.00
2875;BME280;1445;52.600;13.328;2023-03-23T13:08:36;99809.19;;;16.59;100.00
2875;BME280;1445;52.600;13.328;2023-03-23T13:11:07;99800.53;;;16.80;100.00
2875;BME280;1445;52.600;13.328;2023-03-23T13:13:54;99804.06;;;17.62;100.00
2875;BME280;1445;52.600;13.328;2023-03-23T13:19:17;99809.38;;;17.94;100.00
2875;BME280;1445;52.600;13.328;2023-03-23T13:22:11;99791.41;;;17.45;100.00
2875;BME280;1445;52.600;13.328;2023-03-23T13:24:48;99805.97;;;17.81;100.00
2875;BME280;1445;52.600;13.328;2023-03-23T13:27:14;99823.75;;;17.30;100.00
2875;BME280;1445;52.600;13.328;2023-03-23T13:29:44;99810.19;;;17.48;100.00
2875;BME280;1445;52.600;13.328;2023-03-23T13:32:15;99796.31;;;17.52;100.00
2875;BME280;1445;52.600;13.328;2023-03-23T13:34:42;99787.75;;;17.64;100.00
2875;BME280;1445;52.600;13.328;2023-03-23T13:37:20;99786.63;;;17.23;100.00
2875;BME280;1445;52.600;13.328;2023-03-23T13:39:55;99763.53;;;17.68;100.00
2875;BME280;1445;52.600;13.328;2023-03-23T13:42:30;99759.38;;;17.58;100.00
2875;BME280;1445;52.600;13.328;2023-03-23T13:45:23;99743.25;;;17.45;100.00
2875;BME280;1445;52.600;13.328;2023-03-23T13:47:50;99767.56;;;17.48;100.00
2875;BME280;1445;52.600;13.328;2023-03-23T13:50:28;99751.34;;;18.03;100.00
2875;BME280;1445;52.600;13.328;2023-03-23T13:52:59;99754.72;;;18.16;100.00
2875;BME280;1445;52.600;13.328;2023-03-23T13:55:41;99747.94;;;17.63;100.00
2875;BME280;1445;52.600;13.328;2023-03-23T14:00:35;99761.56;;;16.80;100.00
2875;BME280;1445;52.600;13.328;2023-03-23T14:05:45;99803.03;;;16.85;100.00
2875;BME280;1445;52.600;13.328;2023-03-23T14:15:57;99770.97;;;16.37;100.00
2875;BME280;1445;52.600;13.328;2023-03-23T14:18:26;99781.66;;;16.35;100.00
2875;BME280;1445;52.600;13.328;2023-03-23T14:20:55;99775.59;;;16.29;100.00
2875;BME280;1445;52.600;13.328;2023-03-23T14:23:22;99773.44;;;16.22;100.00
2875;BME280;1445;52.600;13.328;2023-03-23T14:25:55;99783.06;;;16.09;100.00
2875;BME280;1445;52.600;13.328;2023-03-23T14:28:21;99795.94;;;15.98;100.00
2875;BME280;1445;52.600;13.328;2023-03-23T14:30:52;99771.16;;;15.93;100.00
2875;BME280;1445;52.600;13.328;2023-03-23T14:33:19;99771.81;;;15.86;100.00
2875;BME280;1445;52.600;13.328;2023-03-23T14:35:46;99780.69;;;15.92;100.00
2875;BME280;1445;52.600;13.328;2023-03-23T14:38:21;99776.31;;;16.26;100.00
2875;BME280;1445;52.600;13.328;2023-03-23T14:40:50;99792.50;;;16.40;100.00
2875;BME280;1445;52.600;13.328;2023-03-23T14:43:18;99785.72;;;16.21;100.00
2875;BME280;1445;52.600;13.328;2023-03-23T14:45:49;99773.56;;;16.10;100.00
2875;BME280;1445;52.600;13.328;2023-03-23T14:48:16;99772.56;;;16.38;100.00
2875;BME280;1445;52.600;13.328;2023-03-23T14:50:55;99768.59;;;16.74;100.00
2875;BME280;1445;52.600;13.328;2023-03-23T14:53:22;99774.72;;;17.95;100.00
2875;BME280;1445;52.600;13.328;2023-03-23T14:55:49;99780.03;;;18.03;100.00
2875;BME280;1445;52.600;13.328;2023-03-23T14:58:17;99774.06;;;16.90;100.00
2875;BME280;1445;52.600;13.328;2023-03-23T15:01:02;99770.84;;;16.88;100.00